Time;durP1;ratioP1;P1;durP2;ratioP2;P2;SDS_P1;SDS_P2;PMS_P1;PMS_P2;Temp;Humidity;BMP_temperature;BMP_pressure;BME280_temperature;BME280_humidity;BME280_pressure;Samples;Min_cycle;Max_cycle;Signal;HPM_P1;HPM_P2
2022/01/20 00:01:46;;;;;;;7.77;5.80;;;3.90;99.90;;;;;;5096744;28;20538;-62
2022/01/20 00:04:24;;;;;;;7.10;5.43;;;3.90;99.90;;;;;;5097613;28;20447;-61
2022/01/20 00:26:29;;;;;;;7.40;5.63;;;3.70;99.90;;;;;;5097508;28;20447;-63
2022/01/20 00:28:59;;;;;;;9.63;5.33;;;3.70;99.90;;;;;;5097544;28;20442;-62
2022/01/20 00:31:35;;;;;;;6.77;4.63;;;3.70;99.90;;;;;;5097942;28;20475;-63
2022/01/20 00:34:13;;;;;;;9.13;6.07;;;3.70;99.90;;;;;;5097178;28;20466;-63
2022/01/20 00:39:26;;;;;;;6.43;4.60;;;3.80;99.90;;;;;;5097784;28;20431;-63
2022/01/20 00:41:54;;;;;;;7.60;5.77;;;3.80;99.90;;;;;;5098231;28;20467;-62
2022/01/20 00:44:21;;;;;;;7.63;4.80;;;3.90;99.90;;;;;;5098109;28;20454;-63
2022/01/20 00:46:48;;;;;;;8.53;5.50;;;3.80;99.90;;;;;;5098038;28;20450;-63
2022/01/20 00:49:15;;;;;;;7.77;5.93;;;3.90;99.90;;;;;;5097649;28;21007;-62
2022/01/20 00:51:43;;;;;;;6.50;5.00;;;3.90;99.90;;;;;;5097538;28;20474;-63
2022/01/20 00:54:10;;;;;;;6.17;4.97;;;3.80;99.90;;;;;;5097297;28;20527;-63
2022/01/20 00:56:37;;;;;;;6.17;5.07;;;3.80;99.90;;;;;;5097315;28;20546;-62
2022/01/20 00:59:04;;;;;;;7.63;5.17;;;3.80;99.90;;;;;;5096518;28;20446;-63
2022/01/20 01:01:31;;;;;;;6.43;4.63;;;3.70;99.90;;;;;;5096581;28;20641;-63
2022/01/20 01:03:57;;;;;;;6.60;5.07;;;3.80;99.90;;;;;;5097594;28;20454;-62
2022/01/20 01:06:37;;;;;;;4.87;4.00;;;3.80;99.90;;;;;;5097206;28;20451;-62
2022/01/20 01:09:06;;;;;;;5.63;4.50;;;3.80;99.90;;;;;;5096899;28;20484;-62
2022/01/20 01:11:33;;;;;;;5.00;4.20;;;3.70;99.90;;;;;;5097028;28;21126;-63
2022/01/20 01:14:02;;;;;;;5.80;4.70;;;3.70;99.90;;;;;;5097983;28;20455;-63
2022/01/20 01:16:41;;;;;;;5.63;4.37;;;3.70;99.90;;;;;;5097099;28;20455;-63
2022/01/20 01:22:04;;;;;;;6.80;4.50;;;3.70;99.90;;;;;;5096801;28;20890;-62
2022/01/20 01:24:32;;;;;;;5.97;4.70;;;3.80;99.90;;;;;;5097946;28;20477;-63
2022/01/20 01:26:59;;;;;;;6.07;4.23;;;3.80;99.90;;;;;;5096601;28;20884;-62
2022/01/20 01:29:45;;;;;;;6.30;4.90;;;3.80;99.90;;;;;;5094844;28;20713;-63
2022/01/20 01:32:15;;;;;;;6.00;4.53;;;3.80;99.90;;;;;;5095208;28;20506;-63
2022/01/20 01:34:47;;;;;;;6.00;3.97;;;3.80;99.90;;;;;;5095233;28;20450;-63
2022/01/20 01:37:35;;;;;;;5.60;4.60;;;3.80;99.90;;;;;;5095904;28;20518;-62
2022/01/20 01:40:07;;;;;;;4.97;3.37;;;3.80;99.90;;;;;;5096669;28;20454;-63
2022/01/20 01:42:40;;;;;;;3.90;3.00;;;3.80;99.90;;;;;;5095552;28;20971;-62
2022/01/20 01:45:08;;;;;;;5.60;3.73;;;3.80;99.90;;;;;;5096189;28;20466;-60
2022/01/20 01:47:35;;;;;;;4.67;3.90;;;3.70;99.90;;;;;;5097507;28;20453;-63
2022/01/20 01:50:02;;;;;;;4.90;4.40;;;3.80;99.90;;;;;;5098023;28;20501;-63
2022/01/20 01:52:29;;;;;;;5.00;3.43;;;3.70;99.90;;;;;;5097574;28;21011;-62
2022/01/20 01:54:56;;;;;;;7.33;4.27;;;3.80;99.90;;;;;;5098340;28;20438;-63
2022/01/20 01:57:26;;;;;;;4.90;3.93;;;3.70;99.90;;;;;;5096957;28;20944;-63
2022/01/20 01:59:54;;;;;;;6.10;3.90;;;3.70;99.90;;;;;;5097139;28;20450;-63
2022/01/20 02:02:21;;;;;;;5.50;4.37;;;3.80;99.90;;;;;;5097391;28;20526;-63
2022/01/20 02:04:49;;;;;;;6.57;3.90;;;3.80;99.90;;;;;;5098202;28;20454;-63
2022/01/20 02:18:36;;;;;;;3.97;2.70;;;3.80;99.90;;;;;;5097237;28;20874;-63
2022/01/20 02:21:06;;;;;;;4.90;3.83;;;3.80;99.90;;;;;;5097389;28;20477;-62
2022/01/20 02:23:33;;;;;;;4.33;2.87;;;3.80;99.90;;;;;;5097279;28;20454;-62
2022/01/20 02:26:00;;;;;;;5.27;3.30;;;3.80;99.90;;;;;;5096567;28;20522;-63
2022/01/20 02:28:28;;;;;;;3.57;2.90;;;3.80;99.90;;;;;;5096205;28;20453;-63
2022/01/20 02:30:55;;;;;;;3.90;2.90;;;3.80;99.90;;;;;;5095981;28;20494;-62
2022/01/20 02:33:26;;;;;;;4.10;2.90;;;3.80;99.90;;;;;;5096611;28;20453;-63
2022/01/20 02:35:56;;;;;;;4.10;2.97;;;3.80;99.90;;;;;;5097264;28;20458;-62
2022/01/20 02:38:30;;;;;;;4.23;3.10;;;3.80;99.90;;;;;;5097212;28;20534;-63
2022/01/20 02:46:30;;;;;;;3.47;2.40;;;3.90;99.90;;;;;;5096934;28;20422;-62
2022/01/20 02:48:57;;;;;;;3.57;2.37;;;3.90;99.90;;;;;;5094051;28;20528;-62
2022/01/20 02:51:24;;;;;;;3.60;2.40;;;3.90;99.90;;;;;;5093830;28;20996;-62
2022/01/20 02:53:52;;;;;;;3.10;2.30;;;3.90;99.90;;;;;;5094036;28;20953;-62
2022/01/20 02:56:19;;;;;;;3.50;2.53;;;3.80;99.90;;;;;;5092185;28;20454;-63
2022/01/20 02:58:46;;;;;;;3.33;2.57;;;3.90;99.90;;;;;;5092924;28;20938;-62
2022/01/20 03:01:13;;;;;;;4.70;3.30;;;3.90;99.90;;;;;;5092636;28;20550;-63
2022/01/20 03:03:40;;;;;;;3.57;2.77;;;3.90;99.90;;;;;;5093535;28;20442;-63
2022/01/20 03:06:07;;;;;;;3.83;2.90;;;3.90;99.90;;;;;;5093506;28;20546;-63
2022/01/20 03:08:34;;;;;;;3.40;2.50;;;3.90;99.90;;;;;;5093892;28;20933;-63
2022/01/20 03:11:02;;;;;;;3.70;2.60;;;3.90;99.90;;;;;;5092840;28;20544;-63
2022/01/20 03:13:29;;;;;;;4.10;2.87;;;4.00;99.90;;;;;;5094224;28;20955;-62
2022/01/20 03:15:56;;;;;;;3.97;3.00;;;4.00;99.90;;;;;;5093570;28;20481;-63
2022/01/20 03:18:23;;;;;;;4.10;2.77;;;4.00;99.90;;;;;;5093293;28;20744;-61
2022/01/20 03:20:50;;;;;;;3.30;2.70;;;4.00;99.90;;;;;;5092828;28;20510;-62
2022/01/20 03:23:17;;;;;;;4.33;3.33;;;4.10;99.90;;;;;;5093058;28;20569;-62
2022/01/20 03:25:44;;;;;;;3.90;3.40;;;4.10;99.90;;;;;;5093519;28;20442;-62
2022/01/20 03:28:12;;;;;;;5.20;3.17;;;4.10;99.90;;;;;;5094065;28;20457;-62
2022/01/20 03:30:39;;;;;;;4.33;3.40;;;4.10;99.90;;;;;;5092705;28;20511;-61
2022/01/20 03:33:06;;;;;;;3.80;2.97;;;4.20;99.90;;;;;;5093644;28;20528;-62
2022/01/20 03:35:33;;;;;;;6.40;3.70;;;4.10;99.90;;;;;;5094120;28;20453;-63
2022/01/20 03:38:00;;;;;;;7.83;3.40;;;4.10;99.90;;;;;;5093623;28;20950;-63
2022/01/20 03:40:27;;;;;;;5.00;4.10;;;4.10;99.90;;;;;;5093403;28;20506;-63
2022/01/20 03:42:54;;;;;;;4.50;3.00;;;4.20;99.90;;;;;;5093222;28;20474;-62
2022/01/20 03:45:25;;;;;;;4.87;3.80;;;4.10;99.90;;;;;;5093121;28;20940;-63
2022/01/20 03:47:54;;;;;;;4.93;3.93;;;4.10;99.90;;;;;;5092486;28;20454;-63
2022/01/20 03:53:07;;;;;;;4.97;3.43;;;4.10;99.90;;;;;;5093617;28;20422;-62
2022/01/20 03:55:33;;;;;;;4.13;3.30;;;4.10;99.90;;;;;;5094209;28;20443;-63
2022/01/20 03:58:00;;;;;;;5.27;3.60;;;4.10;99.90;;;;;;5093236;28;20479;-62
2022/01/20 04:00:28;;;;;;;4.80;3.60;;;4.00;99.90;;;;;;5092687;28;20457;-63
2022/01/20 04:02:55;;;;;;;4.40;3.80;;;4.00;99.90;;;;;;5092119;28;20467;-63
2022/01/20 04:05:22;;;;;;;8.00;3.80;;;4.00;99.90;;;;;;5094084;28;20447;-62
2022/01/20 04:07:49;;;;;;;5.77;4.23;;;4.00;99.90;;;;;;5093595;28;20448;-62
2022/01/20 04:10:16;;;;;;;5.13;3.93;;;4.00;99.90;;;;;;5097166;28;20447;-63
2022/01/20 04:12:43;;;;;;;6.13;4.50;;;3.90;99.90;;;;;;5097746;28;20473;-63
2022/01/20 04:15:10;;;;;;;5.30;4.13;;;3.90;99.90;;;;;;5097537;28;20526;-63
2022/01/20 04:17:42;;;;;;;6.77;5.03;;;3.90;99.90;;;;;;5097808;28;20553;-63
2022/01/20 04:20:10;;;;;;;5.33;3.90;;;4.00;99.90;;;;;;5097635;28;20541;-63
2022/01/20 04:22:37;;;;;;;5.87;4.47;;;3.90;99.90;;;;;;5097174;28;20462;-63
2022/01/20 04:25:05;;;;;;;5.53;4.27;;;4.00;99.90;;;;;;5098211;28;20457;-62
2022/01/20 04:27:32;;;;;;;6.40;4.27;;;3.90;99.90;;;;;;5097785;28;20443;-63
2022/01/20 04:29:59;;;;;;;5.50;4.70;;;3.90;99.90;;;;;;5097386;28;20952;-61
2022/01/20 04:32:26;;;;;;;4.93;4.00;;;3.90;99.90;;;;;;5099364;28;20496;-62
2022/01/20 04:34:54;;;;;;;6.20;4.60;;;3.90;99.90;;;;;;5099659;28;20450;-63
2022/01/20 04:37:21;;;;;;;6.10;4.17;;;3.90;99.90;;;;;;5099124;28;20482;-63
2022/01/20 04:39:50;;;;;;;7.57;4.53;;;3.90;99.90;;;;;;5098417;28;20450;-63
2022/01/20 04:42:18;;;;;;;5.77;4.37;;;3.90;99.90;;;;;;5098332;28;20524;-62
2022/01/20 04:44:50;;;;;;;5.70;3.97;;;4.00;99.90;;;;;;5099332;28;20514;-63
2022/01/20 04:47:33;;;;;;;6.33;4.20;;;3.90;99.90;;;;;;5099118;28;20447;-63
2022/01/20 04:58:14;;;;;;;6.60;4.53;;;4.00;99.90;;;;;;5099638;28;20418;-62
2022/01/20 05:00:41;;;;;;;5.90;4.13;;;4.00;99.90;;;;;;5099466;28;20435;-62
2022/01/20 05:03:08;;;;;;;10.53;4.50;;;3.90;99.90;;;;;;5099792;28;20472;-62
2022/01/20 05:05:36;;;;;;;5.13;3.73;;;3.80;99.90;;;;;;5099949;28;20864;-61
2022/01/20 05:08:03;;;;;;;6.30;4.73;;;3.80;99.90;;;;;;5100540;28;20481;-62
2022/01/20 05:10:33;;;;;;;6.63;4.73;;;3.80;99.90;;;;;;5100945;28;20466;-61
2022/01/20 05:13:08;;;;;;;5.77;3.93;;;3.70;99.90;;;;;;5101730;28;20456;-63
2022/01/20 05:15:34;;;;;;;7.73;4.90;;;3.70;99.90;;;;;;5101027;28;20450;-63
2022/01/20 05:18:01;;;;;;;5.70;4.80;;;3.60;99.90;;;;;;5101430;28;20451;-62
2022/01/20 05:20:29;;;;;;;5.00;3.83;;;3.70;99.90;;;;;;5098904;28;20541;-62
2022/01/20 05:22:57;;;;;;;5.70;4.77;;;3.70;99.90;;;;;;5097683;28;20463;-62
2022/01/20 05:25:24;;;;;;;6.70;5.13;;;3.70;99.90;;;;;;5095599;28;20442;-62
2022/01/20 05:27:50;;;;;;;7.57;4.97;;;3.70;99.90;;;;;;5095846;28;20445;-62
2022/01/20 05:30:17;;;;;;;5.20;4.30;;;3.70;99.90;;;;;;5095326;28;20537;-61
2022/01/20 05:32:44;;;;;;;5.70;4.47;;;3.70;99.90;;;;;;5096050;28;20487;-62
2022/01/20 05:35:11;;;;;;;8.20;5.20;;;3.70;99.90;;;;;;5094461;28;20818;-63
2022/01/20 05:37:38;;;;;;;5.67;4.50;;;3.70;99.90;;;;;;5095790;28;20522;-62
2022/01/20 05:40:08;;;;;;;8.73;3.90;;;3.70;99.90;;;;;;5094990;28;20445;-62
2022/01/20 05:42:37;;;;;;;6.23;4.70;;;3.70;99.90;;;;;;5095430;28;20975;-62
2022/01/20 05:45:06;;;;;;;8.43;4.87;;;3.70;99.90;;;;;;5095315;28;20446;-61
2022/01/20 05:47:35;;;;;;;6.27;4.53;;;3.70;99.90;;;;;;5095425;28;20824;-62
2022/01/20 05:50:02;;;;;;;6.73;3.57;;;3.70;99.90;;;;;;5093431;28;21003;-63
2022/01/20 05:52:29;;;;;;;4.30;3.43;;;3.70;99.90;;;;;;5093248;28;20561;-65
2022/01/20 05:54:56;;;;;;;5.90;4.33;;;3.70;99.90;;;;;;5092673;28;20437;-63
2022/01/20 05:57:24;;;;;;;6.70;4.00;;;3.70;99.90;;;;;;5092629;28;20813;-62
2022/01/20 05:59:51;;;;;;;5.70;3.90;;;3.70;99.90;;;;;;5091685;28;20545;-69
2022/01/20 06:02:33;;;;;;;6.20;4.27;;;3.70;99.90;;;;;;5090934;28;21651;-64
2022/01/20 06:05:00;;;;;;;5.27;4.00;;;3.70;99.90;;;;;;5086741;28;20796;-61
2022/01/20 06:07:27;;;;;;;7.93;5.00;;;3.70;99.90;;;;;;5087040;28;20500;-62
2022/01/20 06:09:54;;;;;;;11.03;5.50;;;3.70;99.90;;;;;;5073336;28;20538;-62
2022/01/20 06:12:21;;;;;;;7.60;5.30;;;3.70;99.90;;;;;;5072549;28;20490;-63
2022/01/20 06:14:49;;;;;;;6.00;4.63;;;3.60;99.90;;;;;;5071753;28;20526;-63
2022/01/20 06:17:16;;;;;;;5.73;4.80;;;3.60;99.90;;;;;;5072407;28;20444;-63
2022/01/20 06:19:43;;;;;;;7.07;4.90;;;3.60;99.90;;;;;;5071125;28;20447;-63
2022/01/20 06:22:13;;;;;;;7.70;5.10;;;3.60;99.90;;;;;;5083260;28;20862;-59
2022/01/20 06:24:41;;;;;;;8.60;5.30;;;3.70;99.90;;;;;;5090050;28;21160;-62
2022/01/20 06:27:08;;;;;;;12.63;6.17;;;3.60;99.90;;;;;;5091542;28;20450;-63
2022/01/20 06:29:34;;;;;;;7.17;4.73;;;3.60;99.90;;;;;;5091900;28;20932;-62
2022/01/20 06:32:03;;;;;;;12.87;5.90;;;3.60;99.90;;;;;;5091196;28;20477;-61
2022/01/20 06:34:30;;;;;;;9.80;6.63;;;3.60;99.90;;;;;;5096398;28;20451;-62
2022/01/20 06:36:57;;;;;;;8.10;5.47;;;3.70;99.90;;;;;;5093154;28;20645;-62
2022/01/20 06:39:24;;;;;;;9.83;5.90;;;3.70;99.90;;;;;;5102459;28;20472;-63
2022/01/20 06:41:51;;;;;;;8.17;5.13;;;3.70;99.90;;;;;;5095721;28;20475;-63
2022/01/20 06:44:21;;;;;;;11.47;6.63;;;3.80;99.90;;;;;;5088898;28;20452;-63
2022/01/20 06:46:48;;;;;;;10.17;6.73;;;3.70;99.90;;;;;;5103419;28;20457;-63
2022/01/20 06:49:18;;;;;;;7.93;6.00;;;3.70;99.90;;;;;;5097517;28;20967;-65
2022/01/20 06:51:45;;;;;;;7.90;6.30;;;3.60;99.90;;;;;;5098422;28;20513;-63
2022/01/20 06:54:12;;;;;;;9.20;6.40;;;3.60;99.90;;;;;;5109399;28;20810;-62
2022/01/20 06:56:41;;;;;;;7.60;5.93;;;3.50;99.90;;;;;;5107369;28;20517;-63
2022/01/20 06:59:08;;;;;;;9.30;6.53;;;3.50;99.90;;;;;;5097650;28;20490;-62
2022/01/20 07:01:36;;;;;;;9.40;6.00;;;3.50;99.90;;;;;;5109972;28;20454;-62
2022/01/20 07:04:02;;;;;;;11.00;6.77;;;3.50;99.90;;;;;;5100320;28;20525;-62
2022/01/20 07:06:31;;;;;;;8.73;6.70;;;3.50;99.90;;;;;;5096958;28;20537;-62
2022/01/20 07:08:58;;;;;;;12.77;6.10;;;3.40;99.90;;;;;;5090046;28;20476;-61
2022/01/20 07:11:24;;;;;;;10.07;5.83;;;3.40;99.90;;;;;;5092264;28;20573;-62
2022/01/20 07:13:51;;;;;;;10.13;6.10;;;3.40;99.90;;;;;;5093310;28;20457;-61
2022/01/20 07:16:18;;;;;;;10.30;5.97;;;3.30;99.90;;;;;;5099043;28;20458;-62
2022/01/20 07:18:45;;;;;;;8.90;5.87;;;3.20;99.90;;;;;;5096970;28;20456;-62
2022/01/20 07:21:12;;;;;;;9.63;6.67;;;3.10;99.90;;;;;;5095999;28;20561;-62
2022/01/20 07:23:41;;;;;;;7.97;5.83;;;3.10;99.90;;;;;;5090652;28;20469;-62
2022/01/20 07:26:07;;;;;;;9.30;6.00;;;3.10;99.90;;;;;;5091237;28;20455;-63
2022/01/20 07:28:34;;;;;;;8.30;5.03;;;3.10;99.90;;;;;;5108015;28;20980;-62
2022/01/20 07:31:01;;;;;;;7.87;5.67;;;3.10;99.90;;;;;;5088709;28;20481;-62
2022/01/20 07:33:28;;;;;;;7.80;5.50;;;3.10;99.90;;;;;;5080752;28;20450;-62
2022/01/20 07:35:55;;;;;;;7.30;5.57;;;3.10;99.90;;;;;;5092946;28;20457;-65
2022/01/20 07:38:22;;;;;;;9.20;6.20;;;3.20;99.90;;;;;;5090647;28;20450;-63
2022/01/20 07:40:50;;;;;;;8.70;5.20;;;3.20;99.90;;;;;;5111474;28;20532;-62
2022/01/20 07:43:17;;;;;;;9.47;6.37;;;3.20;99.90;;;;;;5097022;28;20466;-63
2022/01/20 07:45:44;;;;;;;11.83;4.97;;;3.20;99.90;;;;;;5117019;28;20448;-63
2022/01/20 07:48:11;;;;;;;9.00;5.40;;;3.20;99.90;;;;;;5108193;28;20449;-64
2022/01/20 07:50:38;;;;;;;10.10;6.00;;;3.20;99.90;;;;;;5088814;28;20892;-63
2022/01/20 07:53:05;;;;;;;8.53;5.80;;;3.20;99.90;;;;;;5086915;28;20483;-64
2022/01/20 07:55:32;;;;;;;9.40;5.67;;;3.10;99.90;;;;;;5092233;28;20460;-63
2022/01/20 07:58:01;;;;;;;8.40;4.60;;;3.10;99.90;;;;;;5092001;28;20537;-63
2022/01/20 08:00:27;;;;;;;8.30;4.70;;;3.20;99.90;;;;;;5106065;28;20875;-62
2022/01/20 08:02:54;;;;;;;10.07;5.40;;;3.20;99.90;;;;;;5106022;28;20472;-63
2022/01/20 08:05:21;;;;;;;11.33;4.73;;;3.20;99.90;;;;;;5107912;28;20453;-63
2022/01/20 08:07:48;;;;;;;7.97;5.13;;;3.20;99.90;;;;;;5095193;28;20951;-62
2022/01/20 08:10:15;;;;;;;10.50;4.97;;;3.20;99.90;;;;;;5117131;28;20449;-64
2022/01/20 08:12:43;;;;;;;10.73;5.07;;;3.20;99.90;;;;;;5100861;28;20568;-63
2022/01/20 08:15:14;;;;;;;10.90;5.30;;;3.20;99.90;;;;;;5109991;28;20454;-63
2022/01/20 08:17:41;;;;;;;16.77;5.60;;;3.40;99.90;;;;;;5107246;28;20484;-64
2022/01/20 08:20:09;;;;;;;11.80;5.73;;;3.40;99.90;;;;;;5113877;28;20502;-64
2022/01/20 08:22:37;;;;;;;10.40;5.23;;;3.50;99.90;;;;;;5114597;28;20465;-63
2022/01/20 08:25:06;;;;;;;12.27;4.83;;;3.60;99.90;;;;;;5114850;28;20452;-63
2022/01/20 08:27:32;;;;;;;10.10;5.70;;;3.70;99.90;;;;;;5114545;28;20449;-63
2022/01/20 08:29:59;;;;;;;7.57;4.17;;;3.70;99.90;;;;;;5113467;28;20467;-63
2022/01/20 08:32:27;;;;;;;6.60;4.03;;;3.70;99.90;;;;;;5113188;28;20481;-63
2022/01/20 08:34:54;;;;;;;9.77;4.93;;;3.80;99.90;;;;;;5113345;28;20545;-63
2022/01/20 08:37:21;;;;;;;8.77;5.93;;;3.80;99.90;;;;;;5113255;28;20452;-63
2022/01/20 08:39:48;;;;;;;7.07;4.27;;;3.90;99.90;;;;;;5113579;28;20456;-63
2022/01/20 08:42:15;;;;;;;6.80;4.83;;;3.90;99.90;;;;;;5114640;28;20469;-64
2022/01/20 08:44:42;;;;;;;7.20;4.27;;;3.90;99.90;;;;;;5114696;28;20879;-63
2022/01/20 08:47:16;;;;;;;11.83;5.07;;;4.00;99.90;;;;;;5114518;28;20525;-63
2022/01/20 08:49:44;;;;;;;8.10;5.10;;;4.00;99.90;;;;;;5114898;28;20460;-64
2022/01/20 08:52:11;;;;;;;9.47;4.30;;;4.00;99.90;;;;;;5115099;28;20588;-63
2022/01/20 08:54:38;;;;;;;12.03;5.37;;;4.10;99.90;;;;;;5114601;27;20544;-64
2022/01/20 08:57:06;;;;;;;10.70;5.40;;;4.20;99.90;;;;;;5115009;28;20445;-63
2022/01/20 08:59:32;;;;;;;8.33;4.63;;;4.20;99.90;;;;;;5116011;28;20513;-63
2022/01/20 09:01:59;;;;;;;9.60;4.37;;;4.20;99.90;;;;;;5117374;28;20869;-63
2022/01/20 09:04:26;;;;;;;12.07;4.70;;;4.30;99.90;;;;;;5117557;28;20532;-64
2022/01/20 09:06:54;;;;;;;11.40;4.90;;;4.30;99.90;;;;;;5117728;28;20445;-64
2022/01/20 09:09:21;;;;;;;7.40;4.20;;;4.30;99.90;;;;;;5117300;28;20444;-63
2022/01/20 09:12:04;;;;;;;9.40;4.70;;;4.30;99.90;;;;;;5116537;28;20549;-64
2022/01/20 09:17:15;;;;;;;8.70;4.60;;;4.40;99.90;;;;;;5116752;28;20429;-63
2022/01/20 09:19:42;;;;;;;6.40;4.10;;;4.40;99.90;;;;;;5116940;28;20442;-64
2022/01/20 09:22:11;;;;;;;11.33;4.70;;;4.60;99.90;;;;;;5116918;28;20530;-64
2022/01/20 09:24:38;;;;;;;12.07;4.03;;;4.60;99.90;;;;;;5116744;28;20446;-64
2022/01/20 09:27:05;;;;;;;8.80;4.60;;;4.70;99.90;;;;;;5115632;28;20452;-63
2022/01/20 09:29:32;;;;;;;7.73;3.90;;;4.80;99.90;;;;;;5114661;28;20446;-63
2022/01/20 09:32:00;;;;;;;10.97;4.53;;;4.90;99.90;;;;;;5114625;27;20493;-64
2022/01/20 09:34:27;;;;;;;8.33;4.57;;;4.90;99.90;;;;;;5116048;28;20450;-64
2022/01/20 09:36:54;;;;;;;12.70;4.50;;;4.90;99.90;;;;;;5115209;28;20515;-63
2022/01/20 09:39:22;;;;;;;5.93;3.73;;;5.00;99.90;;;;;;5114865;28;20498;-64
2022/01/20 09:41:49;;;;;;;12.00;4.67;;;5.00;99.90;;;;;;5114257;28;20480;-64
2022/01/20 09:44:16;;;;;;;8.60;4.23;;;5.00;99.90;;;;;;5115020;28;20533;-61
2022/01/20 09:46:45;;;;;;;16.23;5.87;;;5.00;99.90;;;;;;5113904;28;20446;-63
2022/01/20 09:49:12;;;;;;;8.90;4.67;;;5.10;99.90;;;;;;5114592;28;20483;-64
2022/01/20 09:51:39;;;;;;;8.53;4.47;;;5.20;99.90;;;;;;5114181;28;20561;-64
2022/01/20 09:54:06;;;;;;;11.73;5.40;;;5.10;99.90;;;;;;5115225;28;20589;-63
2022/01/20 09:56:35;;;;;;;14.50;5.60;;;5.10;99.90;;;;;;5115090;27;20450;-64
2022/01/20 09:59:02;;;;;;;12.43;5.00;;;5.10;99.90;;;;;;5115277;28;20895;-64
2022/01/20 10:01:41;;;;;;;8.60;3.87;;;5.10;99.90;;;;;;5115247;28;20906;-64
2022/01/20 10:04:18;;;;;;;10.90;3.90;;;5.10;99.90;;;;;;5114682;28;20445;-64
2022/01/20 10:06:53;;;;;;;8.60;4.20;;;5.10;99.90;;;;;;5114293;28;20469;-64
2022/01/20 10:09:28;;;;;;;11.50;5.50;;;5.10;99.90;;;;;;5114544;28;20838;-64
2022/01/20 10:11:56;;;;;;;17.70;4.90;;;5.10;99.90;;;;;;5113120;28;20798;-64
2022/01/20 10:14:23;;;;;;;16.03;4.80;;;5.20;99.90;;;;;;5112521;28;20977;-63
2022/01/20 10:16:50;;;;;;;11.13;4.77;;;5.20;99.90;;;;;;5112673;28;20437;-64
2022/01/20 10:19:23;;;;;;;12.80;4.83;;;5.10;99.90;;;;;;5113870;28;20549;-64
2022/01/20 10:21:50;;;;;;;7.07;4.20;;;5.10;99.90;;;;;;5113492;28;20458;-64
2022/01/20 10:24:18;;;;;;;6.90;4.10;;;5.10;99.90;;;;;;5112981;28;20541;-63
2022/01/20 10:26:45;;;;;;;11.10;4.77;;;5.10;99.90;;;;;;5113341;28;20528;-64
2022/01/20 10:29:15;;;;;;;9.93;5.00;;;5.10;99.90;;;;;;5112637;28;20438;-63
2022/01/20 10:31:43;;;;;;;11.67;5.30;;;5.10;99.90;;;;;;5112197;28;20476;-64
2022/01/20 10:34:22;;;;;;;5.83;3.90;;;5.10;99.90;;;;;;5113400;28;20508;-64
2022/01/20 10:36:55;;;;;;;10.53;4.80;;;5.20;99.90;;;;;;5098881;28;20450;-60
2022/01/20 10:39:28;;;;;;;15.43;5.33;;;5.20;99.90;;;;;;5093100;28;20459;-61
2022/01/20 10:42:00;;;;;;;8.70;6.00;;;5.30;99.90;;;;;;5092759;28;20463;-64
2022/01/20 10:44:29;;;;;;;12.37;6.67;;;5.60;99.90;;;;;;5092070;28;20481;-64
2022/01/20 10:46:58;;;;;;;9.47;5.10;;;5.70;99.90;;;;;;5092051;28;20438;-64
2022/01/20 10:49:31;;;;;;;10.57;4.93;;;5.80;99.90;;;;;;5091825;28;20869;-64
2022/01/20 10:52:00;;;;;;;14.30;4.53;;;5.80;99.90;;;;;;5092345;28;20842;-65
2022/01/20 10:54:34;;;;;;;8.17;4.40;;;5.80;99.90;;;;;;5093231;28;20870;-64
2022/01/20 10:57:01;;;;;;;9.83;5.70;;;5.80;99.90;;;;;;5093560;28;20784;-64
2022/01/20 10:59:29;;;;;;;9.13;5.90;;;5.80;99.90;;;;;;5092304;28;20538;-65
2022/01/20 11:02:00;;;;;;;10.93;4.90;;;5.80;99.90;;;;;;5090706;28;20459;-64
2022/01/20 11:04:28;;;;;;;7.53;3.83;;;5.60;99.90;;;;;;5092732;28;20521;-64
2022/01/20 11:06:58;;;;;;;8.97;4.10;;;5.50;99.90;;;;;;5094766;28;20462;-63
2022/01/20 11:09:27;;;;;;;10.63;4.60;;;5.50;99.90;;;;;;5094048;28;20483;-64
2022/01/20 11:11:55;;;;;;;8.47;4.23;;;5.40;99.90;;;;;;5094509;28;20470;-64
2022/01/20 11:14:22;;;;;;;9.47;5.17;;;5.40;99.90;;;;;;5093822;28;20581;-64
2022/01/20 11:16:51;;;;;;;11.07;5.40;;;5.40;99.90;;;;;;5091985;28;20554;-63
2022/01/20 11:19:19;;;;;;;7.97;4.20;;;5.40;99.90;;;;;;5094661;28;20525;-63
2022/01/20 11:21:47;;;;;;;9.17;4.00;;;5.40;99.90;;;;;;5095349;28;20477;-63
2022/01/20 11:24:19;;;;;;;10.57;4.50;;;5.40;99.90;;;;;;5095427;28;20449;-65
2022/01/20 11:26:58;;;;;;;9.13;5.40;;;5.40;99.90;;;;;;5095108;28;20450;-63
2022/01/20 11:29:40;;;;;;;12.70;4.63;;;5.40;99.90;;;;;;5094918;28;20446;-63
2022/01/20 11:32:22;;;;;;;8.23;4.53;;;5.50;99.90;;;;;;5094445;28;20474;-63
2022/01/20 11:35:04;;;;;;;9.23;5.30;;;5.50;99.90;;;;;;5094749;28;20438;-63
2022/01/20 11:37:34;;;;;;;6.37;4.83;;;5.60;99.90;;;;;;5094218;28;20449;-63
2022/01/20 11:40:17;;;;;;;8.03;4.00;;;5.70;99.90;;;;;;5094404;28;20480;-63
2022/01/20 11:42:56;;;;;;;10.90;5.00;;;6.10;99.90;;;;;;5094109;28;20463;-63
2022/01/20 11:45:29;;;;;;;7.60;3.90;;;6.40;99.90;;;;;;5094697;28;20450;-64
2022/01/20 11:47:57;;;;;;;10.93;4.87;;;6.60;99.90;;;;;;5095230;28;20439;-64
2022/01/20 11:50:24;;;;;;;9.30;4.30;;;6.70;99.90;;;;;;5094648;28;20999;-64
2022/01/20 11:52:51;;;;;;;7.73;3.57;;;6.80;99.90;;;;;;5095150;28;20936;-64
2022/01/20 11:55:20;;;;;;;8.50;3.47;;;7.00;99.90;;;;;;5095727;28;20437;-64
2022/01/20 11:57:47;;;;;;;8.90;4.33;;;7.10;99.90;;;;;;5094518;28;20442;-64
2022/01/20 12:00:23;;;;;;;6.10;3.60;;;6.90;99.90;;;;;;5094644;28;20447;-64
2022/01/20 12:02:51;;;;;;;5.57;3.60;;;6.80;99.90;;;;;;5097241;28;20462;-64
2022/01/20 12:05:27;;;;;;;8.83;4.23;;;6.70;99.90;;;;;;5097138;28;20470;-64
2022/01/20 12:08:05;;;;;;;8.17;3.83;;;6.60;99.90;;;;;;5097409;28;20566;-63
2022/01/20 12:10:32;;;;;;;2.03;1.10;;;6.40;99.90;;;;;;5095486;28;20956;-64
2022/01/20 12:13:07;;;;;;;2.33;0.90;;;5.10;99.90;;;;;;5097645;28;20524;-64
2022/01/20 12:15:34;;;;;;;3.50;1.80;;;3.60;99.90;;;;;;5100667;28;20533;-63
2022/01/20 12:18:01;;;;;;;5.37;2.47;;;2.50;99.90;;;;;;5101352;28;20482;-65
2022/01/20 12:20:30;;;;;;;6.27;2.20;;;2.00;99.90;;;;;;5101137;28;20507;-65
2022/01/20 12:22:58;;;;;;;5.17;2.60;;;1.80;99.90;;;;;;5101560;28;20558;-65
2022/01/20 12:25:27;;;;;;;10.33;3.47;;;1.70;99.90;;;;;;5099485;28;20536;-65
2022/01/20 12:28:03;;;;;;;4.80;2.20;;;1.70;99.90;;;;;;5098978;28;20449;-65
2022/01/20 12:30:30;;;;;;;4.20;2.13;;;1.80;99.90;;;;;;5096711;28;20513;-64
2022/01/20 12:33:00;;;;;;;4.60;2.33;;;1.90;99.90;;;;;;5097980;28;20491;-64
2022/01/20 12:35:41;;;;;;;7.60;2.07;;;1.90;99.90;;;;;;5099426;28;20951;-64
2022/01/20 12:38:16;;;;;;;6.53;3.33;;;2.00;99.90;;;;;;5098980;28;20466;-64
2022/01/20 12:40:43;;;;;;;6.70;2.70;;;1.90;99.90;;;;;;5099813;28;20532;-64
2022/01/20 12:43:09;;;;;;;7.93;2.00;;;1.90;99.90;;;;;;5101754;28;20439;-65
2022/01/20 12:48:20;;;;;;;4.40;2.60;;;2.10;99.90;;;;;;5093978;28;20439;-66
2022/01/20 12:50:59;;;;;;;5.80;2.93;;;2.20;99.90;;;;;;5101323;28;20529;-67
2022/01/20 12:53:34;;;;;;;11.13;3.07;;;2.20;99.90;;;;;;5103954;28;20486;-66
2022/01/20 12:56:01;;;;;;;12.40;2.80;;;2.30;99.90;;;;;;5103700;28;20497;-67
2022/01/20 12:58:27;;;;;;;6.13;3.07;;;2.30;99.90;;;;;;5105053;28;20446;-67
2022/01/20 13:00:59;;;;;;;8.03;3.60;;;2.40;99.90;;;;;;5105939;28;20474;-67
2022/01/20 13:03:37;;;;;;;7.60;3.60;;;2.40;99.90;;;;;;5105053;28;20473;-66
2022/01/20 13:06:08;;;;;;;5.37;3.00;;;2.50;99.90;;;;;;5094975;28;21015;-67
2022/01/20 13:08:38;;;;;;;7.23;3.13;;;2.50;99.90;;;;;;5096467;28;20446;-66
2022/01/20 13:11:08;;;;;;;11.57;4.03;;;2.50;99.90;;;;;;5073149;28;20466;-65
2022/01/20 13:13:36;;;;;;;10.73;3.60;;;2.50;99.90;;;;;;5072317;28;20510;-66
2022/01/20 13:16:13;;;;;;;9.50;3.00;;;2.50;99.90;;;;;;5073067;28;20473;-65
2022/01/20 13:18:40;;;;;;;8.00;3.83;;;2.50;99.90;;;;;;5078215;28;20538;-65
2022/01/20 13:21:09;;;;;;;7.30;3.53;;;2.50;99.90;;;;;;5090550;28;20470;-63
2022/01/20 13:23:58;;;;;;;9.60;4.27;;;2.50;99.90;;;;;;5090244;28;20449;-65
2022/01/20 13:26:26;;;;;;;6.73;2.80;;;2.50;99.90;;;;;;5090931;28;20441;-64
2022/01/20 13:29:04;;;;;;;8.03;3.70;;;2.60;99.90;;;;;;5090100;28;20454;-64
2022/01/20 13:31:32;;;;;;;10.13;4.00;;;2.60;99.90;;;;;;5090049;28;21214;-65
2022/01/20 13:34:08;;;;;;;5.73;3.63;;;2.60;99.90;;;;;;5090100;28;20485;-65
2022/01/20 13:36:42;;;;;;;7.37;3.37;;;2.70;99.90;;;;;;5091418;28;20541;-64
2022/01/20 13:39:09;;;;;;;6.97;3.00;;;2.70;99.90;;;;;;5087514;28;20459;-64
2022/01/20 13:41:36;;;;;;;5.90;4.20;;;2.80;99.90;;;;;;5088651;28;20467;-64
2022/01/20 13:47:05;;;;;;;7.53;4.10;;;2.80;99.90;;;;;;5094826;28;21026;-65
2022/01/20 13:49:32;;;;;;;6.73;4.20;;;2.90;99.90;;;;;;5102912;28;20521;-65
2022/01/20 13:52:03;;;;;;;8.13;3.23;;;2.90;99.90;;;;;;5085029;28;20477;-64
2022/01/20 13:54:38;;;;;;;7.43;5.30;;;2.90;99.90;;;;;;5091354;28;20489;-66
2022/01/20 13:57:05;;;;;;;8.40;3.93;;;2.90;99.90;;;;;;5089489;28;20449;-65
2022/01/20 13:59:32;;;;;;;9.07;4.30;;;2.90;99.90;;;;;;5086603;28;21314;-65
2022/01/20 14:01:59;;;;;;;10.23;4.83;;;3.00;99.90;;;;;;5081347;28;20538;-64
2022/01/20 14:04:26;;;;;;;8.97;4.63;;;3.00;99.90;;;;;;5088443;28;20450;-64
2022/01/20 14:06:53;;;;;;;10.97;4.90;;;3.00;99.90;;;;;;5082152;28;20457;-64